createdAt,value
2017-08-14T00:00:16.839Z,10.90
2017-08-14T00:02:42.958Z,10.90
2017-08-14T00:05:09.063Z,10.80
2017-08-14T00:07:35.190Z,10.80
2017-08-14T00:10:01.596Z,10.80
2017-08-14T00:12:28.050Z,10.70
2017-08-14T00:14:54.162Z,11.20
2017-08-14T00:17:20.302Z,11.30
2017-08-14T00:19:46.401Z,11.10
2017-08-14T00:22:12.505Z,11.00
2017-08-14T00:24:39.497Z,10.80
2017-08-14T00:27:05.615Z,10.70
2017-08-14T00:29:31.713Z,10.70
2017-08-14T00:31:57.858Z,10.60
2017-08-14T00:34:23.973Z,10.60
2017-08-14T00:36:50.102Z,10.50
2017-08-14T00:39:16.250Z,10.50
2017-08-14T00:41:42.371Z,10.40
2017-08-14T00:44:08.506Z,10.50
2017-08-14T00:46:34.929Z,10.50
2017-08-14T00:49:01.052Z,10.40
2017-08-14T00:51:27.165Z,10.50
2017-08-14T00:53:53.311Z,10.40
2017-08-14T00:56:19.442Z,10.40
2017-08-14T00:58:45.579Z,11.50
2017-08-14T01:01:11.688Z,12.40
2017-08-14T01:03:37.787Z,11.90
2017-08-14T01:06:03.914Z,11.40
2017-08-14T01:08:30.018Z,11.00
2017-08-14T01:10:56.136Z,10.90
2017-08-14T01:13:22.307Z,10.80
2017-08-14T01:15:48.417Z,10.60
2017-08-14T01:18:14.525Z,10.50
2017-08-14T01:20:40.642Z,10.40
2017-08-14T01:23:07.482Z,10.20
2017-08-14T01:25:34.331Z,10.10
2017-08-14T01:28:00.445Z,10.10
2017-08-14T01:30:26.562Z,10.00
2017-08-14T01:32:53.411Z,10.00
2017-08-14T01:35:19.537Z,9.90
2017-08-14T01:37:45.645Z,9.80
2017-08-14T01:40:11.743Z,9.80
2017-08-14T01:42:37.878Z,9.70
2017-08-14T01:45:03.979Z,9.80
2017-08-14T01:47:30.094Z,9.80
2017-08-14T01:49:56.556Z,9.80
2017-08-14T01:52:22.659Z,9.80
2017-08-14T01:54:48.772Z,9.80
2017-08-14T01:57:14.901Z,9.70
2017-08-14T01:59:41.007Z,9.70
2017-08-14T02:02:07.112Z,9.70
2017-08-14T02:04:33.617Z,9.70
2017-08-14T02:06:59.744Z,9.60
2017-08-14T02:09:25.905Z,9.60
2017-08-14T02:11:52.788Z,9.50
2017-08-14T02:14:18.903Z,9.50
2017-08-14T02:16:45.019Z,9.50
2017-08-14T02:19:11.163Z,9.50
2017-08-14T02:21:37.268Z,9.50
2017-08-14T02:24:03.410Z,9.50
2017-08-14T02:26:29.823Z,9.50
2017-08-14T02:28:55.956Z,9.50
2017-08-14T02:31:22.073Z,9.50
2017-08-14T02:33:48.952Z,9.50
2017-08-14T02:36:15.065Z,9.50
2017-08-14T02:38:41.184Z,9.40
2017-08-14T02:41:07.656Z,9.40
2017-08-14T02:43:33.768Z,9.50
2017-08-14T02:45:59.887Z,9.40
2017-08-14T02:48:26.440Z,9.40
2017-08-14T02:50:52.561Z,9.40
2017-08-14T02:53:18.676Z,9.30
2017-08-14T02:55:44.885Z,9.40
2017-08-14T02:58:11.003Z,9.30
2017-08-14T03:00:37.133Z,9.30
2017-08-14T03:03:03.299Z,9.30
2017-08-14T03:05:29.421Z,9.30
2017-08-14T03:07:55.550Z,9.30
2017-08-14T03:10:21.692Z,9.40
2017-08-14T03:12:47.796Z,9.30
2017-08-14T03:15:13.925Z,9.30
2017-08-14T03:17:40.087Z,9.30
2017-08-14T03:20:06.220Z,9.30
2017-08-14T03:22:32.324Z,9.20
2017-08-14T03:24:58.465Z,9.20
2017-08-14T03:27:24.581Z,9.20
2017-08-14T03:29:51.437Z,9.20
2017-08-14T03:32:17.568Z,9.10
2017-08-14T03:34:43.676Z,9.20
2017-08-14T03:37:10.529Z,9.20
2017-08-14T03:39:36.653Z,9.20
2017-08-14T03:42:02.787Z,9.20
2017-08-14T03:44:29.636Z,9.10
2017-08-14T03:46:55.743Z,9.10
2017-08-14T03:49:21.858Z,9.20
2017-08-14T03:51:48.992Z,9.10
2017-08-14T03:54:15.103Z,9.00
2017-08-14T03:56:41.202Z,9.00
2017-08-14T03:59:07.408Z,9.00
2017-08-14T04:01:33.545Z,9.10
2017-08-14T04:04:00.304Z,9.00
2017-08-14T04:06:26.488Z,9.00
2017-08-14T04:08:53.920Z,9.00
2017-08-14T04:11:20.776Z,9.00
2017-08-14T04:13:47.701Z,9.00
2017-08-14T04:16:14.034Z,9.00
2017-08-14T04:18:40.164Z,8.90
2017-08-14T04:21:07.299Z,8.90
2017-08-14T04:23:34.208Z,8.90
2017-08-14T04:26:00.320Z,8.90
2017-08-14T04:28:26.703Z,8.90
2017-08-14T04:30:52.811Z,8.90
2017-08-14T04:33:18.923Z,9.00
2017-08-14T04:35:45.380Z,9.00
2017-08-14T04:38:11.500Z,9.10
2017-08-14T04:40:37.612Z,9.10
2017-08-14T04:43:03.743Z,9.10
2017-08-14T04:45:30.044Z,9.10
2017-08-14T04:47:56.171Z,9.60
2017-08-14T04:50:22.296Z,9.80
2017-08-14T04:52:48.580Z,9.80
2017-08-14T04:55:14.937Z,9.80
2017-08-14T04:57:41.499Z,10.00
2017-08-14T05:00:07.621Z,9.80
2017-08-14T05:02:33.727Z,9.70
2017-08-14T05:04:59.877Z,9.60
2017-08-14T05:07:25.979Z,9.50
2017-08-14T05:09:52.371Z,9.50
2017-08-14T05:12:18.491Z,9.50
2017-08-14T05:14:44.596Z,9.50
2017-08-14T05:17:10.836Z,9.60
2017-08-14T05:19:37.007Z,9.60
2017-08-14T05:22:03.855Z,9.80
2017-08-14T05:24:29.965Z,9.70
2017-08-14T05:26:56.140Z,9.80
2017-08-14T05:29:22.276Z,9.90
2017-08-14T05:31:48.388Z,10.00
2017-08-14T05:34:15.163Z,10.10
2017-08-14T05:36:41.324Z,10.20
2017-08-14T05:39:07.436Z,10.20
2017-08-14T05:41:33.612Z,10.30
2017-08-14T05:43:59.812Z,10.40
2017-08-14T05:46:26.667Z,10.50
2017-08-14T05:48:52.828Z,10.50
2017-08-14T05:51:19.029Z,10.60
2017-08-14T05:53:45.152Z,10.70
2017-08-14T05:56:11.305Z,10.80
2017-08-14T05:58:37.446Z,10.90
2017-08-14T06:01:03.676Z,11.00
2017-08-14T06:03:30.092Z,11.20
2017-08-14T06:05:56.201Z,11.30
2017-08-14T06:08:22.357Z,11.30
2017-08-14T06:10:48.476Z,11.40
2017-08-14T06:13:14.580Z,11.60
2017-08-14T06:15:40.701Z,11.70
2017-08-14T06:18:06.814Z,11.80
2017-08-14T06:20:32.928Z,11.90
2017-08-14T06:22:59.848Z,12.20
2017-08-14T06:25:25.946Z,12.10
2017-08-14T06:27:52.055Z,12.30
2017-08-14T06:30:18.221Z,12.40
2017-08-14T06:32:44.328Z,12.50
2017-08-14T06:35:10.768Z,12.60
2017-08-14T06:37:36.896Z,12.70
2017-08-14T06:40:03.009Z,12.90
2017-08-14T06:42:29.121Z,13.00
2017-08-14T06:44:55.267Z,13.00
2017-08-14T06:47:21.371Z,13.10
2017-08-14T06:49:47.485Z,13.10
2017-08-14T06:52:13.612Z,13.30
2017-08-14T06:54:39.963Z,13.40
2017-08-14T06:57:06.071Z,13.50
2017-08-14T06:59:32.163Z,13.60
2017-08-14T07:01:59.202Z,13.80
2017-08-14T07:04:26.051Z,14.00
2017-08-14T07:06:53.118Z,14.10
2017-08-14T07:09:19.563Z,14.00
2017-08-14T07:11:45.686Z,14.30
2017-08-14T07:14:11.799Z,14.40
2017-08-14T07:16:37.936Z,14.50
2017-08-14T07:19:04.043Z,14.50
2017-08-14T07:21:30.167Z,14.60
2017-08-14T07:23:56.323Z,14.70
2017-08-14T07:26:22.437Z,14.80
2017-08-14T07:28:48.544Z,14.90
2017-08-14T07:31:14.690Z,15.00
2017-08-14T07:33:40.788Z,15.10
2017-08-14T07:36:07.916Z,15.20
2017-08-14T07:38:34.733Z,15.20
2017-08-14T07:41:00.835Z,15.30
2017-08-14T07:43:26.955Z,15.40
2017-08-14T07:45:53.086Z,15.60
2017-08-14T07:48:19.188Z,15.70
2017-08-14T07:50:45.300Z,15.70
2017-08-14T07:53:12.177Z,15.90
2017-08-14T07:55:38.288Z,15.90
2017-08-14T07:58:04.404Z,16.00
2017-08-14T08:00:31.604Z,16.10
2017-08-14T08:02:57.707Z,16.10
2017-08-14T08:05:23.814Z,16.30
2017-08-14T08:07:50.187Z,16.40
2017-08-14T08:10:16.297Z,16.40
2017-08-14T08:12:42.412Z,16.50
2017-08-14T08:15:08.542Z,16.60
2017-08-14T08:17:34.651Z,16.80
2017-08-14T08:20:00.773Z,16.90
2017-08-14T08:22:26.889Z,17.00
2017-08-14T08:24:52.992Z,17.10
2017-08-14T08:27:19.149Z,17.10
2017-08-14T08:29:45.255Z,17.10
2017-08-14T08:32:12.100Z,17.20
2017-08-14T08:34:39.000Z,17.40
2017-08-14T08:37:05.104Z,17.40
2017-08-14T08:39:31.207Z,17.50
2017-08-14T08:41:57.347Z,17.60
2017-08-14T08:44:23.452Z,17.70
2017-08-14T08:46:50.293Z,17.70
2017-08-14T08:49:16.699Z,17.70
2017-08-14T08:51:42.812Z,17.70
2017-08-14T08:54:08.943Z,17.70
2017-08-14T08:56:35.084Z,17.80
2017-08-14T08:59:01.209Z,18.00
2017-08-14T09:01:28.057Z,18.10
2017-08-14T09:03:54.952Z,18.20
2017-08-14T09:06:21.068Z,18.20
2017-08-14T09:08:47.206Z,18.30
2017-08-14T09:11:13.388Z,18.20
2017-08-14T09:13:40.245Z,18.20
2017-08-14T09:16:06.360Z,18.20
2017-08-14T09:18:32.524Z,18.30
2017-08-14T09:20:58.786Z,18.40
2017-08-14T09:23:24.912Z,18.50
2017-08-14T09:25:51.329Z,18.50
2017-08-14T09:28:17.428Z,18.50
2017-08-14T09:30:43.543Z,18.40
2017-08-14T09:33:09.676Z,18.30
2017-08-14T09:35:35.778Z,18.50
2017-08-14T09:38:01.896Z,18.50
2017-08-14T09:40:28.999Z,18.70
2017-08-14T09:42:55.101Z,18.70
2017-08-14T09:45:21.229Z,18.90
2017-08-14T09:47:47.360Z,18.80
2017-08-14T09:50:13.476Z,18.90
2017-08-14T09:52:39.612Z,19.00
2017-08-14T09:55:06.030Z,19.10
2017-08-14T09:57:32.133Z,19.20
2017-08-14T09:59:58.975Z,19.50
2017-08-14T10:02:25.087Z,19.50
2017-08-14T10:04:51.987Z,19.40
2017-08-14T10:07:18.119Z,19.30
2017-08-14T10:09:44.226Z,19.50
2017-08-14T10:12:10.342Z,19.50
2017-08-14T10:14:36.697Z,19.20
2017-08-14T10:17:02.804Z,19.30
2017-08-14T10:19:28.909Z,19.50
2017-08-14T10:21:55.280Z,19.50
2017-08-14T10:24:21.380Z,19.50
2017-08-14T10:26:47.659Z,19.80
2017-08-14T10:29:13.825Z,19.90
2017-08-14T10:31:39.976Z,19.70
2017-08-14T10:34:06.106Z,19.60
2017-08-14T10:36:32.242Z,19.60
2017-08-14T10:38:58.347Z,19.70
2017-08-14T10:41:24.488Z,19.80
2017-08-14T10:43:50.589Z,19.80
2017-08-14T10:46:16.697Z,19.80
2017-08-14T10:48:42.843Z,19.60
2017-08-14T10:51:08.940Z,19.60
2017-08-14T10:53:35.043Z,19.70
2017-08-14T10:56:01.188Z,20.00
2017-08-14T10:58:28.054Z,20.10
2017-08-14T11:00:54.163Z,20.10
2017-08-14T11:03:21.022Z,20.00
2017-08-14T11:05:47.152Z,20.00
2017-08-14T11:08:13.349Z,20.30
2017-08-14T11:10:40.192Z,20.40
2017-08-14T11:13:07.046Z,20.50
2017-08-14T11:15:33.176Z,20.50
2017-08-14T11:17:59.304Z,20.50
2017-08-14T11:20:25.408Z,20.40
2017-08-14T11:22:51.516Z,20.60
2017-08-14T11:25:17.635Z,20.70
2017-08-14T11:27:43.739Z,20.80
2017-08-14T11:30:09.972Z,20.70
2017-08-14T11:32:36.379Z,20.90
2017-08-14T11:35:02.516Z,21.00
2017-08-14T11:37:28.981Z,20.90
2017-08-14T11:39:55.396Z,20.90
2017-08-14T11:42:21.496Z,21.10
2017-08-14T11:44:47.603Z,21.20
2017-08-14T11:47:13.980Z,21.10
2017-08-14T11:49:40.089Z,21.10
2017-08-14T11:52:06.192Z,21.20
2017-08-14T11:54:32.560Z,21.30
2017-08-14T11:56:58.659Z,21.30
2017-08-14T11:59:24.772Z,21.30
2017-08-14T12:01:51.017Z,21.30
2017-08-14T12:04:17.131Z,21.50
2017-08-14T12:06:43.239Z,21.40
2017-08-14T12:09:09.372Z,21.50
2017-08-14T12:11:35.488Z,21.70
2017-08-14T12:14:02.399Z,23.10
2017-08-14T12:16:28.545Z,23.10
2017-08-14T12:18:55.449Z,25.70
2017-08-14T12:21:21.565Z,25.70
2017-08-14T12:23:48.011Z,27.00
2017-08-14T12:26:14.112Z,27.60
2017-08-14T12:28:40.220Z,27.90
2017-08-14T12:31:06.358Z,28.30
2017-08-14T12:33:33.302Z,28.10
2017-08-14T12:35:59.411Z,28.40
2017-08-14T12:38:25.792Z,27.50
2017-08-14T12:40:51.889Z,28.60
2017-08-14T12:43:17.994Z,29.30
2017-08-14T12:45:44.212Z,29.50
2017-08-14T12:48:11.068Z,30.00
2017-08-14T12:50:37.193Z,30.00
2017-08-14T12:53:03.588Z,30.60
2017-08-14T12:55:29.697Z,31.20
2017-08-14T12:57:55.834Z,31.10
2017-08-14T13:00:21.982Z,31.50
2017-08-14T13:02:48.836Z,31.90
2017-08-14T13:05:14.941Z,31.90
2017-08-14T13:07:41.164Z,31.40
2017-08-14T13:10:07.267Z,32.30
2017-08-14T13:12:33.380Z,31.60
2017-08-14T13:14:59.487Z,31.10
2017-08-14T13:17:25.601Z,30.70
2017-08-14T13:19:51.972Z,31.20
2017-08-14T13:22:18.071Z,31.60
2017-08-14T13:24:44.191Z,29.90
2017-08-14T13:27:10.309Z,30.00
2017-08-14T13:29:36.426Z,31.20
2017-08-14T13:32:02.548Z,31.50
2017-08-14T13:34:28.676Z,31.90
2017-08-14T13:36:54.788Z,32.00
2017-08-14T13:39:21.650Z,32.30
2017-08-14T13:41:48.128Z,32.30
2017-08-14T13:44:14.249Z,32.30
2017-08-14T13:46:40.352Z,32.10
2017-08-14T13:49:06.481Z,32.30
2017-08-14T13:51:32.624Z,32.80
2017-08-14T13:53:58.740Z,32.70
2017-08-14T13:56:24.854Z,32.60
2017-08-14T13:58:51.097Z,32.40
2017-08-14T14:01:17.215Z,32.10
2017-08-14T14:03:43.331Z,32.50
2017-08-14T14:06:09.474Z,32.80
2017-08-14T14:08:35.593Z,33.00
2017-08-14T14:11:01.726Z,32.20
2017-08-14T14:13:27.861Z,32.60
2017-08-14T14:15:53.960Z,32.80
2017-08-14T14:18:20.061Z,32.60
2017-08-14T14:20:46.173Z,32.30
2017-08-14T14:23:13.036Z,31.80
2017-08-14T14:25:39.408Z,31.80
2017-08-14T14:28:05.557Z,32.10
2017-08-14T14:30:32.433Z,31.10
2017-08-14T14:32:58.576Z,31.10
2017-08-14T14:35:24.685Z,31.00
2017-08-14T14:37:50.803Z,29.90
2017-08-14T14:40:17.668Z,28.20
2017-08-14T14:42:43.795Z,28.20
2017-08-14T14:45:09.900Z,27.60
2017-08-14T14:47:36.280Z,27.00
2017-08-14T14:50:02.408Z,26.80
2017-08-14T14:52:28.522Z,26.50
2017-08-14T14:54:54.661Z,26.60
2017-08-14T14:57:20.769Z,26.60
2017-08-14T14:59:46.880Z,26.90
2017-08-14T15:02:14.448Z,27.50
2017-08-14T15:04:42.680Z,25.80
2017-08-14T15:07:09.768Z,25.80
2017-08-14T15:09:36.732Z,25.20
2017-08-14T15:12:02.844Z,25.20
2017-08-14T15:14:28.957Z,24.60
2017-08-14T15:16:55.318Z,24.70
2017-08-14T15:19:21.618Z,24.60
2017-08-14T15:21:47.796Z,24.60
2017-08-14T15:24:14.206Z,24.50
2017-08-14T15:26:40.312Z,24.40
2017-08-14T15:29:06.404Z,24.10
2017-08-14T15:31:32.577Z,23.90
2017-08-14T15:33:58.680Z,23.90
2017-08-14T15:36:24.777Z,24.10
2017-08-14T15:38:50.908Z,24.20
2017-08-14T15:41:17.032Z,24.10
2017-08-14T15:43:43.871Z,23.70
2017-08-14T15:46:10.006Z,23.70
2017-08-14T15:48:36.107Z,23.50
2017-08-14T15:51:02.218Z,23.30
2017-08-14T15:53:28.347Z,23.30
2017-08-14T15:55:54.474Z,23.30
2017-08-14T15:58:20.701Z,23.20
2017-08-14T16:00:47.944Z,23.10
2017-08-14T16:03:14.073Z,23.00
2017-08-14T16:05:40.182Z,22.90
2017-08-14T16:08:06.321Z,22.80
2017-08-14T16:10:32.431Z,22.90
2017-08-14T16:12:58.550Z,22.90
2017-08-14T16:15:24.707Z,22.90
2017-08-14T16:17:51.036Z,23.00
2017-08-14T16:20:17.906Z,22.90
2017-08-14T16:22:44.296Z,22.90
2017-08-14T16:25:10.404Z,22.90
2017-08-14T16:27:36.519Z,22.80
2017-08-14T16:30:02.692Z,22.70
2017-08-14T16:32:28.793Z,22.50
2017-08-14T16:34:54.920Z,22.50
2017-08-14T16:37:21.309Z,22.40
2017-08-14T16:39:47.421Z,22.40
2017-08-14T16:42:13.524Z,22.40
2017-08-14T16:44:39.685Z,22.30
2017-08-14T16:47:05.808Z,22.20
2017-08-14T16:49:31.939Z,22.00
2017-08-14T16:51:58.080Z,22.00
2017-08-14T16:54:24.211Z,22.00
2017-08-14T16:56:50.336Z,22.00
2017-08-14T16:59:16.499Z,21.90
2017-08-14T17:01:42.639Z,21.90
2017-08-14T17:04:09.512Z,21.80
2017-08-14T17:06:35.677Z,21.70
2017-08-14T17:09:01.837Z,21.70
2017-08-14T17:11:28.696Z,21.60
2017-08-14T17:13:54.838Z,21.60
2017-08-14T17:16:20.955Z,21.60
2017-08-14T17:18:47.091Z,21.60
2017-08-14T17:21:13.243Z,21.60
2017-08-14T17:23:39.358Z,21.50
2017-08-14T17:26:05.480Z,21.40
2017-08-14T17:28:31.827Z,21.30
2017-08-14T17:30:57.940Z,21.30
2017-08-14T17:33:24.055Z,21.20
2017-08-14T17:35:50.207Z,21.20
2017-08-14T17:38:16.325Z,21.20
2017-08-14T17:40:42.434Z,21.20
2017-08-14T17:43:08.583Z,21.10
2017-08-14T17:45:34.940Z,21.00
2017-08-14T17:48:01.044Z,21.00
2017-08-14T17:50:28.014Z,20.90
2017-08-14T17:52:54.160Z,20.90
2017-08-14T17:55:21.011Z,20.80
2017-08-14T17:57:47.156Z,20.80
2017-08-14T18:00:13.277Z,20.80
2017-08-14T18:02:39.396Z,20.80
2017-08-14T18:05:05.538Z,20.70
2017-08-14T18:07:31.650Z,20.60
2017-08-14T18:09:57.767Z,20.50
2017-08-14T18:12:23.908Z,20.50
2017-08-14T18:14:50.020Z,20.40
2017-08-14T18:17:16.135Z,20.40
2017-08-14T18:19:42.308Z,20.40
2017-08-14T18:22:08.420Z,20.30
2017-08-14T18:24:34.540Z,20.20
2017-08-14T18:27:00.893Z,20.20
2017-08-14T18:29:27.031Z,20.20
2017-08-14T18:31:53.156Z,20.10
2017-08-14T18:34:19.306Z,19.90
2017-08-14T18:36:46.168Z,19.60
2017-08-14T18:39:12.288Z,19.60
2017-08-14T18:41:38.437Z,19.50
2017-08-14T18:44:05.284Z,19.50
2017-08-14T18:46:31.597Z,19.40
2017-08-14T18:48:57.754Z,19.30
2017-08-14T18:51:23.872Z,19.30
2017-08-14T18:53:49.989Z,19.20
2017-08-14T18:56:16.135Z,19.10
2017-08-14T18:58:42.262Z,19.00
2017-08-14T19:01:08.371Z,18.90
2017-08-14T19:03:34.535Z,18.80
2017-08-14T19:06:00.649Z,18.70
2017-08-14T19:08:28.228Z,18.70
2017-08-14T19:10:52.948Z,18.60
2017-08-14T19:13:19.092Z,18.70
2017-08-14T19:15:45.205Z,18.70
2017-08-14T19:18:11.338Z,18.60
2017-08-14T19:20:37.457Z,18.60
2017-08-14T19:23:03.578Z,18.60
2017-08-14T19:25:29.952Z,18.70
2017-08-14T19:27:56.069Z,18.50
2017-08-14T19:30:22.210Z,18.30
2017-08-14T19:32:48.344Z,18.20
2017-08-14T19:35:14.475Z,18.20
2017-08-14T19:37:40.585Z,18.10
2017-08-14T19:40:06.901Z,18.00
2017-08-14T19:42:33.017Z,17.90
2017-08-14T19:45:00.110Z,17.90
2017-08-14T19:47:26.249Z,18.10
2017-08-14T19:49:53.105Z,18.20
2017-08-14T19:52:19.234Z,18.10
2017-08-14T19:54:45.353Z,17.90
2017-08-14T19:57:11.480Z,17.90
2017-08-14T19:59:38.360Z,18.00
2017-08-14T20:02:04.491Z,18.00
2017-08-14T20:04:30.614Z,18.10
2017-08-14T20:06:56.761Z,17.80
2017-08-14T20:09:22.900Z,17.60
2017-08-14T20:11:49.018Z,17.40
2017-08-14T20:14:15.252Z,17.30
2017-08-14T20:16:41.365Z,17.30
2017-08-14T20:19:07.497Z,17.20
2017-08-14T20:21:33.641Z,17.20
2017-08-14T20:24:00.513Z,17.20
2017-08-14T20:26:26.625Z,17.20
2017-08-14T20:28:52.942Z,17.20
2017-08-14T20:31:19.821Z,17.10
2017-08-14T20:33:46.300Z,17.10
2017-08-14T20:36:12.432Z,17.00
2017-08-14T20:38:38.536Z,17.10
2017-08-14T20:41:04.645Z,17.10
2017-08-14T20:43:31.099Z,17.10
2017-08-14T20:45:57.216Z,17.10
2017-08-14T20:48:23.339Z,17.10
2017-08-14T20:50:49.480Z,17.10
2017-08-14T20:53:15.582Z,17.00
2017-08-14T20:55:41.696Z,17.10
2017-08-14T20:58:07.811Z,17.00
2017-08-14T21:00:33.957Z,17.00
2017-08-14T21:03:00.135Z,17.00
2017-08-14T21:05:26.988Z,16.90
2017-08-14T21:07:53.845Z,16.90
2017-08-14T21:10:20.013Z,16.90
2017-08-14T21:12:46.133Z,16.90
2017-08-14T21:15:12.264Z,17.00
2017-08-14T21:17:38.401Z,16.90
2017-08-14T21:20:04.511Z,16.90
2017-08-14T21:22:30.631Z,16.80
2017-08-14T21:24:56.796Z,16.80
2017-08-14T21:27:23.672Z,16.80
2017-08-14T21:29:50.156Z,16.70
2017-08-14T21:32:16.264Z,16.80
2017-08-14T21:34:42.591Z,16.80
2017-08-14T21:37:08.700Z,16.70
2017-08-14T21:39:34.868Z,16.60
2017-08-14T21:42:01.388Z,16.60
2017-08-14T21:44:27.502Z,16.80
2017-08-14T21:46:53.607Z,16.80
2017-08-14T21:49:19.716Z,16.80
2017-08-14T21:51:45.835Z,16.70
2017-08-14T21:54:11.961Z,16.70
2017-08-14T21:56:38.468Z,16.60
2017-08-14T21:59:04.580Z,16.50
2017-08-14T22:01:30.688Z,16.50
2017-08-14T22:03:56.829Z,16.50
2017-08-14T22:06:22.961Z,16.50
2017-08-14T22:08:49.067Z,16.50
2017-08-14T22:11:15.206Z,16.60
2017-08-14T22:13:41.316Z,16.50
2017-08-14T22:16:07.426Z,16.60
2017-08-14T22:18:33.577Z,16.70
2017-08-14T22:20:59.675Z,16.70
2017-08-14T22:23:25.780Z,16.70
2017-08-14T22:25:52.155Z,16.80
2017-08-14T22:28:18.260Z,16.80
2017-08-14T22:30:44.377Z,16.90
2017-08-14T22:33:10.544Z,17.00
2017-08-14T22:35:36.657Z,17.00
2017-08-14T22:38:02.792Z,17.10
2017-08-14T22:40:28.906Z,17.10
2017-08-14T22:42:55.016Z,17.10
2017-08-14T22:45:21.146Z,17.20
2017-08-14T22:47:47.275Z,17.20
2017-08-14T22:50:13.405Z,17.20
2017-08-14T22:52:39.508Z,17.20
2017-08-14T22:55:05.892Z,17.30
2017-08-14T22:57:32.016Z,17.30
2017-08-14T22:59:58.120Z,17.30
2017-08-14T23:02:24.264Z,17.30
2017-08-14T23:04:50.382Z,17.40
2017-08-14T23:07:16.497Z,17.40
2017-08-14T23:09:42.644Z,17.40
2017-08-14T23:12:08.780Z,17.40
2017-08-14T23:14:35.640Z,17.40
2017-08-14T23:17:01.793Z,17.30
2017-08-14T23:19:27.912Z,17.40
2017-08-14T23:21:54.021Z,17.50
2017-08-14T23:24:20.396Z,17.50
2017-08-14T23:26:46.509Z,17.50
2017-08-14T23:29:12.612Z,17.40
2017-08-14T23:31:38.789Z,17.40
2017-08-14T23:34:04.925Z,17.40
2017-08-14T23:36:31.023Z,17.40
2017-08-14T23:38:57.149Z,17.40
2017-08-14T23:41:23.284Z,17.50
2017-08-14T23:43:49.404Z,17.40
2017-08-14T23:46:15.533Z,17.50
2017-08-14T23:48:42.412Z,17.60
2017-08-14T23:51:09.288Z,17.70
2017-08-14T23:53:35.436Z,17.60
2017-08-14T23:56:01.569Z,17.70
2017-08-14T23:58:27.716Z,17.80
